sensor_id;sensor_type;location;lat;lon;timestamp;P1;durP1;ratioP1;P2;durP2;ratioP2
50781;SDS011;36749;37.428;-121.972;2024-02-15T00:01:10;1.30;;;1.20;;
50781;SDS011;36749;37.428;-121.972;2024-02-15T00:03:37;3.38;;;1.33;;
50781;SDS011;36749;37.428;-121.972;2024-02-15T00:06:03;2.83;;;1.30;;
50781;SDS011;36749;37.428;-121.972;2024-02-15T00:08:31;0.90;;;0.90;;
50781;SDS011;36749;37.428;-121.972;2024-02-15T00:10:58;3.05;;;1.30;;
50781;SDS011;36749;37.428;-121.972;2024-02-15T00:13:24;1.35;;;1.10;;
50781;SDS011;36749;37.428;-121.972;2024-02-15T00:15:50;1.00;;;1.00;;
50781;SDS011;36749;37.428;-121.972;2024-02-15T00:18:17;3.88;;;1.30;;
50781;SDS011;36749;37.428;-121.972;2024-02-15T00:20:43;3.83;;;1.38;;
50781;SDS011;36749;37.428;-121.972;2024-02-15T00:23:10;1.27;;;1.10;;
50781;SDS011;36749;37.428;-121.972;2024-02-15T00:25:37;1.80;;;1.20;;
50781;SDS011;36749;37.428;-121.972;2024-02-15T00:28:03;2.95;;;1.48;;
50781;SDS011;36749;37.428;-121.972;2024-02-15T00:30:29;1.45;;;1.35;;
50781;SDS011;36749;37.428;-121.972;2024-02-15T00:32:56;3.42;;;2.08;;
50781;SDS011;36749;37.428;-121.972;2024-02-15T00:35:22;3.75;;;1.75;;
50781;SDS011;36749;37.428;-121.972;2024-02-15T00:37:49;3.33;;;1.50;;
50781;SDS011;36749;37.428;-121.972;2024-02-15T00:40:16;6.93;;;2.33;;
50781;SDS011;36749;37.428;-121.972;2024-02-15T00:42:42;1.85;;;1.70;;
50781;SDS011;36749;37.428;-121.972;2024-02-15T00:45:08;2.22;;;1.20;;
50781;SDS011;36749;37.428;-121.972;2024-02-15T00:47:35;2.25;;;1.30;;
50781;SDS011;36749;37.428;-121.972;2024-02-15T00:50:03;2.00;;;1.25;;
50781;SDS011;36749;37.428;-121.972;2024-02-15T00:52:29;1.20;;;1.10;;
50781;SDS011;36749;37.428;-121.972;2024-02-15T00:54:56;1.60;;;1.02;;
50781;SDS011;36749;37.428;-121.972;2024-02-15T00:57:22;1.98;;;1.13;;
50781;SDS011;36749;37.428;-121.972;2024-02-15T00:59:48;3.78;;;2.10;;
50781;SDS011;36749;37.428;-121.972;2024-02-15T01:02:14;2.83;;;1.90;;
50781;SDS011;36749;37.428;-121.972;2024-02-15T01:04:41;2.10;;;1.42;;
50781;SDS011;36749;37.428;-121.972;2024-02-15T01:07:08;2.75;;;1.83;;
50781;SDS011;36749;37.428;-121.972;2024-02-15T01:09:34;3.28;;;1.63;;
50781;SDS011;36749;37.428;-121.972;2024-02-15T01:12:00;2.00;;;1.08;;
50781;SDS011;36749;37.428;-121.972;2024-02-15T01:14:29;2.90;;;1.70;;
50781;SDS011;36749;37.428;-121.972;2024-02-15T01:16:56;3.70;;;1.35;;
50781;SDS011;36749;37.428;-121.972;2024-02-15T01:19:22;0.95;;;0.95;;
50781;SDS011;36749;37.428;-121.972;2024-02-15T01:21:48;2.80;;;1.30;;
50781;SDS011;36749;37.428;-121.972;2024-02-15T01:24:14;3.00;;;1.33;;
50781;SDS011;36749;37.428;-121.972;2024-02-15T01:26:41;2.13;;;1.00;;
50781;SDS011;36749;37.428;-121.972;2024-02-15T01:29:07;0.95;;;0.95;;
50781;SDS011;36749;37.428;-121.972;2024-02-15T01:31:37;1.85;;;1.20;;
50781;SDS011;36749;37.428;-121.972;2024-02-15T01:34:04;3.10;;;1.30;;
50781;SDS011;36749;37.428;-121.972;2024-02-15T01:36:30;4.57;;;1.60;;
50781;SDS011;36749;37.428;-121.972;2024-02-15T01:38:56;2.10;;;1.25;;
50781;SDS011;36749;37.428;-121.972;2024-02-15T01:41:23;1.38;;;1.15;;
50781;SDS011;36749;37.428;-121.972;2024-02-15T01:43:49;1.65;;;1.33;;
50781;SDS011;36749;37.428;-121.972;2024-02-15T01:46:15;1.27;;;1.17;;
50781;SDS011;36749;37.428;-121.972;2024-02-15T01:48:41;1.00;;;1.00;;
50781;SDS011;36749;37.428;-121.972;2024-02-15T01:51:09;2.65;;;1.48;;
50781;SDS011;36749;37.428;-121.972;2024-02-15T01:53:36;2.88;;;1.90;;
50781;SDS011;36749;37.428;-121.972;2024-02-15T01:56:03;2.35;;;2.00;;
50781;SDS011;36749;37.428;-121.972;2024-02-15T01:58:30;1.67;;;1.50;;
50781;SDS011;36749;37.428;-121.972;2024-02-15T02:00:57;1.60;;;1.38;;
50781;SDS011;36749;37.428;-121.972;2024-02-15T02:03:24;2.55;;;1.50;;
50781;SDS011;36749;37.428;-121.972;2024-02-15T02:05:50;1.38;;;1.27;;
50781;SDS011;36749;37.428;-121.972;2024-02-15T02:08:16;3.80;;;2.10;;
50781;SDS011;36749;37.428;-121.972;2024-02-15T02:10:42;4.15;;;2.45;;
50781;SDS011;36749;37.428;-121.972;2024-02-15T02:13:11;2.50;;;1.65;;
50781;SDS011;36749;37.428;-121.972;2024-02-15T02:15:37;2.90;;;1.50;;
50781;SDS011;36749;37.428;-121.972;2024-02-15T02:18:03;3.22;;;1.50;;
50781;SDS011;36749;37.428;-121.972;2024-02-15T02:20:35;3.10;;;1.60;;
50781;SDS011;36749;37.428;-121.972;2024-02-15T02:23:13;2.60;;;1.20;;
50781;SDS011;36749;37.428;-121.972;2024-02-15T02:25:40;2.38;;;1.70;;
50781;SDS011;36749;37.428;-121.972;2024-02-15T02:28:10;3.00;;;1.50;;
50781;SDS011;36749;37.428;-121.972;2024-02-15T02:30:36;3.15;;;1.60;;
50781;SDS011;36749;37.428;-121.972;2024-02-15T02:33:10;2.83;;;1.67;;
50781;SDS011;36749;37.428;-121.972;2024-02-15T02:35:44;1.92;;;1.70;;
50781;SDS011;36749;37.428;-121.972;2024-02-15T02:38:11;1.90;;;1.35;;
50781;SDS011;36749;37.428;-121.972;2024-02-15T02:40:40;1.75;;;1.60;;
50781;SDS011;36749;37.428;-121.972;2024-02-15T02:43:06;2.72;;;1.55;;
50781;SDS011;36749;37.428;-121.972;2024-02-15T02:45:33;1.83;;;1.40;;
50781;SDS011;36749;37.428;-121.972;2024-02-15T02:48:00;1.73;;;1.50;;
50781;SDS011;36749;37.428;-121.972;2024-02-15T02:50:26;1.60;;;1.50;;
50781;SDS011;36749;37.428;-121.972;2024-02-15T02:52:52;2.05;;;1.42;;
50781;SDS011;36749;37.428;-121.972;2024-02-15T02:55:19;2.97;;;1.67;;
50781;SDS011;36749;37.428;-121.972;2024-02-15T02:57:46;1.95;;;1.70;;
50781;SDS011;36749;37.428;-121.972;2024-02-15T03:00:12;1.60;;;1.20;;
50781;SDS011;36749;37.428;-121.972;2024-02-15T03:02:40;1.75;;;0.90;;
50781;SDS011;36749;37.428;-121.972;2024-02-15T03:05:07;1.17;;;0.80;;
50781;SDS011;36749;37.428;-121.972;2024-02-15T03:07:34;1.00;;;0.90;;
50781;SDS011;36749;37.428;-121.972;2024-02-15T03:10:01;1.10;;;0.98;;
50781;SDS011;36749;37.428;-121.972;2024-02-15T03:12:36;1.10;;;1.00;;
50781;SDS011;36749;37.428;-121.972;2024-02-15T03:15:03;1.45;;;1.10;;
50781;SDS011;36749;37.428;-121.972;2024-02-15T03:17:30;2.33;;;0.90;;
50781;SDS011;36749;37.428;-121.972;2024-02-15T03:19:59;2.22;;;1.02;;
50781;SDS011;36749;37.428;-121.972;2024-02-15T03:25:23;1.80;;;1.00;;
50781;SDS011;36749;37.428;-121.972;2024-02-15T03:27:50;1.50;;;1.15;;
50781;SDS011;36749;37.428;-121.972;2024-02-15T03:30:21;5.05;;;1.50;;
50781;SDS011;36749;37.428;-121.972;2024-02-15T03:32:49;2.28;;;1.30;;
50781;SDS011;36749;37.428;-121.972;2024-02-15T03:35:22;4.53;;;2.05;;
50781;SDS011;36749;37.428;-121.972;2024-02-15T03:37:50;7.72;;;1.42;;
50781;SDS011;36749;37.428;-121.972;2024-02-15T03:40:17;4.90;;;1.48;;
50781;SDS011;36749;37.428;-121.972;2024-02-15T03:42:44;4.32;;;1.60;;
50781;SDS011;36749;37.428;-121.972;2024-02-15T03:45:12;6.82;;;1.73;;
50781;SDS011;36749;37.428;-121.972;2024-02-15T03:47:38;7.15;;;1.85;;
50781;SDS011;36749;37.428;-121.972;2024-02-15T03:50:05;5.45;;;1.85;;
50781;SDS011;36749;37.428;-121.972;2024-02-15T03:52:35;7.63;;;2.08;;
50781;SDS011;36749;37.428;-121.972;2024-02-15T03:55:04;6.85;;;1.83;;
50781;SDS011;36749;37.428;-121.972;2024-02-15T03:57:32;12.05;;;2.53;;
50781;SDS011;36749;37.428;-121.972;2024-02-15T03:59:59;9.07;;;2.10;;
50781;SDS011;36749;37.428;-121.972;2024-02-15T04:02:25;9.60;;;2.10;;
50781;SDS011;36749;37.428;-121.972;2024-02-15T04:04:53;10.07;;;2.20;;
50781;SDS011;36749;37.428;-121.972;2024-02-15T04:07:20;6.88;;;2.00;;
50781;SDS011;36749;37.428;-121.972;2024-02-15T04:09:47;7.53;;;2.28;;
50781;SDS011;36749;37.428;-121.972;2024-02-15T04:12:14;11.75;;;1.90;;
50781;SDS011;36749;37.428;-121.972;2024-02-15T04:14:40;8.70;;;2.60;;
50781;SDS011;36749;37.428;-121.972;2024-02-15T04:17:10;4.20;;;1.42;;
50781;SDS011;36749;37.428;-121.972;2024-02-15T04:19:45;6.85;;;1.80;;
50781;SDS011;36749;37.428;-121.972;2024-02-15T04:22:18;5.97;;;1.95;;
50781;SDS011;36749;37.428;-121.972;2024-02-15T04:24:44;9.02;;;2.10;;
50781;SDS011;36749;37.428;-121.972;2024-02-15T04:27:11;14.35;;;2.65;;
50781;SDS011;36749;37.428;-121.972;2024-02-15T04:29:38;14.82;;;2.75;;
50781;SDS011;36749;37.428;-121.972;2024-02-15T04:32:09;11.90;;;2.00;;
50781;SDS011;36749;37.428;-121.972;2024-02-15T04:34:37;7.45;;;2.15;;
50781;SDS011;36749;37.428;-121.972;2024-02-15T04:37:03;12.30;;;2.85;;
50781;SDS011;36749;37.428;-121.972;2024-02-15T04:39:36;13.45;;;2.38;;
50781;SDS011;36749;37.428;-121.972;2024-02-15T04:42:03;11.85;;;2.38;;
50781;SDS011;36749;37.428;-121.972;2024-02-15T04:44:32;9.60;;;2.10;;
50781;SDS011;36749;37.428;-121.972;2024-02-15T04:47:00;11.73;;;2.30;;
50781;SDS011;36749;37.428;-121.972;2024-02-15T04:49:30;9.00;;;2.40;;
50781;SDS011;36749;37.428;-121.972;2024-02-15T04:51:56;8.32;;;2.15;;
50781;SDS011;36749;37.428;-121.972;2024-02-15T04:54:23;6.50;;;1.80;;
50781;SDS011;36749;37.428;-121.972;2024-02-15T04:56:49;6.50;;;1.90;;
50781;SDS011;36749;37.428;-121.972;2024-02-15T04:59:20;27.75;;;3.65;;
50781;SDS011;36749;37.428;-121.972;2024-02-15T05:01:49;8.23;;;2.45;;
50781;SDS011;36749;37.428;-121.972;2024-02-15T05:04:15;12.32;;;2.40;;
50781;SDS011;36749;37.428;-121.972;2024-02-15T05:06:42;10.40;;;2.42;;
50781;SDS011;36749;37.428;-121.972;2024-02-15T05:09:08;4.75;;;1.85;;
50781;SDS011;36749;37.428;-121.972;2024-02-15T05:11:38;5.70;;;1.77;;
50781;SDS011;36749;37.428;-121.972;2024-02-15T05:14:07;12.40;;;2.13;;
50781;SDS011;36749;37.428;-121.972;2024-02-15T05:16:34;7.82;;;2.10;;
50781;SDS011;36749;37.428;-121.972;2024-02-15T05:19:00;10.05;;;2.88;;
50781;SDS011;36749;37.428;-121.972;2024-02-15T05:21:28;7.38;;;2.00;;
50781;SDS011;36749;37.428;-121.972;2024-02-15T05:23:55;11.63;;;2.33;;
50781;SDS011;36749;37.428;-121.972;2024-02-15T05:26:23;4.95;;;1.73;;
50781;SDS011;36749;37.428;-121.972;2024-02-15T05:28:49;8.63;;;2.28;;
50781;SDS011;36749;37.428;-121.972;2024-02-15T05:31:19;6.10;;;2.10;;
50781;SDS011;36749;37.428;-121.972;2024-02-15T05:33:47;10.05;;;3.03;;
50781;SDS011;36749;37.428;-121.972;2024-02-15T05:36:13;7.43;;;2.75;;
50781;SDS011;36749;37.428;-121.972;2024-02-15T05:38:40;5.97;;;2.15;;
50781;SDS011;36749;37.428;-121.972;2024-02-15T05:41:10;10.45;;;2.30;;
50781;SDS011;36749;37.428;-121.972;2024-02-15T05:43:37;9.65;;;2.50;;
50781;SDS011;36749;37.428;-121.972;2024-02-15T05:46:05;4.80;;;2.10;;
50781;SDS011;36749;37.428;-121.972;2024-02-15T05:48:34;5.85;;;2.00;;
50781;SDS011;36749;37.428;-121.972;2024-02-15T05:51:01;11.90;;;2.92;;
50781;SDS011;36749;37.428;-121.972;2024-02-15T05:53:28;5.10;;;2.60;;
50781;SDS011;36749;37.428;-121.972;2024-02-15T05:55:55;6.65;;;2.50;;
50781;SDS011;36749;37.428;-121.972;2024-02-15T05:58:24;5.22;;;2.20;;
50781;SDS011;36749;37.428;-121.972;2024-02-15T06:00:51;7.95;;;2.78;;
50781;SDS011;36749;37.428;-121.972;2024-02-15T06:03:18;4.93;;;1.98;;
50781;SDS011;36749;37.428;-121.972;2024-02-15T06:05:51;5.93;;;2.20;;
50781;SDS011;36749;37.428;-121.972;2024-02-15T06:08:24;4.03;;;2.33;;
50781;SDS011;36749;37.428;-121.972;2024-02-15T06:10:51;10.68;;;3.13;;
50781;SDS011;36749;37.428;-121.972;2024-02-15T06:13:18;6.05;;;2.20;;
50781;SDS011;36749;37.428;-121.972;2024-02-15T06:15:44;12.30;;;3.20;;
50781;SDS011;36749;37.428;-121.972;2024-02-15T06:18:14;7.78;;;2.78;;
50781;SDS011;36749;37.428;-121.972;2024-02-15T06:20:47;7.70;;;3.65;;
50781;SDS011;36749;37.428;-121.972;2024-02-15T06:23:16;8.18;;;2.33;;
50781;SDS011;36749;37.428;-121.972;2024-02-15T06:25:43;3.53;;;2.22;;
50781;SDS011;36749;37.428;-121.972;2024-02-15T06:28:10;6.25;;;2.50;;
50781;SDS011;36749;37.428;-121.972;2024-02-15T06:30:59;5.97;;;2.58;;
50781;SDS011;36749;37.428;-121.972;2024-02-15T06:33:44;8.00;;;2.75;;
50781;SDS011;36749;37.428;-121.972;2024-02-15T06:36:28;10.13;;;3.35;;
50781;SDS011;36749;37.428;-121.972;2024-02-15T06:39:15;9.18;;;3.03;;
50781;SDS011;36749;37.428;-121.972;2024-02-15T06:42:00;6.43;;;2.58;;
50781;SDS011;36749;37.428;-121.972;2024-02-15T06:44:27;12.98;;;3.53;;
50781;SDS011;36749;37.428;-121.972;2024-02-15T06:46:54;7.50;;;2.83;;
50781;SDS011;36749;37.428;-121.972;2024-02-15T06:49:22;10.32;;;3.60;;
50781;SDS011;36749;37.428;-121.972;2024-02-15T06:51:52;8.40;;;3.30;;
50781;SDS011;36749;37.428;-121.972;2024-02-15T06:54:18;12.07;;;3.92;;
50781;SDS011;36749;37.428;-121.972;2024-02-15T06:56:44;10.52;;;3.92;;
50781;SDS011;36749;37.428;-121.972;2024-02-15T06:59:14;7.53;;;3.30;;
50781;SDS011;36749;37.428;-121.972;2024-02-15T07:01:42;8.30;;;3.67;;
50781;SDS011;36749;37.428;-121.972;2024-02-15T07:04:08;6.55;;;3.55;;
50781;SDS011;36749;37.428;-121.972;2024-02-15T07:06:38;8.07;;;3.80;;
50781;SDS011;36749;37.428;-121.972;2024-02-15T07:09:07;9.00;;;3.60;;
50781;SDS011;36749;37.428;-121.972;2024-02-15T07:11:33;7.20;;;3.67;;
50781;SDS011;36749;37.428;-121.972;2024-02-15T07:14:00;7.00;;;3.47;;
50781;SDS011;36749;37.428;-121.972;2024-02-15T07:16:26;7.95;;;3.50;;
50781;SDS011;36749;37.428;-121.972;2024-02-15T07:18:53;8.95;;;3.40;;
50781;SDS011;36749;37.428;-121.972;2024-02-15T07:21:20;4.75;;;2.88;;
50781;SDS011;36749;37.428;-121.972;2024-02-15T07:23:51;5.88;;;3.25;;
50781;SDS011;36749;37.428;-121.972;2024-02-15T07:26:20;8.70;;;3.78;;
50781;SDS011;36749;37.428;-121.972;2024-02-15T07:28:50;6.25;;;3.05;;
50781;SDS011;36749;37.428;-121.972;2024-02-15T07:31:20;6.07;;;2.78;;
50781;SDS011;36749;37.428;-121.972;2024-02-15T07:33:52;8.23;;;3.30;;
50781;SDS011;36749;37.428;-121.972;2024-02-15T07:36:22;7.95;;;3.13;;
50781;SDS011;36749;37.428;-121.972;2024-02-15T07:38:53;5.18;;;3.03;;
50781;SDS011;36749;37.428;-121.972;2024-02-15T07:41:23;8.40;;;3.30;;
50781;SDS011;36749;37.428;-121.972;2024-02-15T07:43:49;8.57;;;3.10;;
50781;SDS011;36749;37.428;-121.972;2024-02-15T07:46:16;8.00;;;2.70;;
50781;SDS011;36749;37.428;-121.972;2024-02-15T07:48:43;8.07;;;3.60;;
50781;SDS011;36749;37.428;-121.972;2024-02-15T07:51:15;5.72;;;3.42;;
50781;SDS011;36749;37.428;-121.972;2024-02-15T07:53:43;10.20;;;4.30;;
50781;SDS011;36749;37.428;-121.972;2024-02-15T07:56:10;6.70;;;3.50;;
50781;SDS011;36749;37.428;-121.972;2024-02-15T07:58:39;9.43;;;3.40;;
50781;SDS011;36749;37.428;-121.972;2024-02-15T08:01:29;9.48;;;3.38;;
50781;SDS011;36749;37.428;-121.972;2024-02-15T08:03:56;6.78;;;3.72;;
50781;SDS011;36749;37.428;-121.972;2024-02-15T08:06:22;8.02;;;3.35;;
50781;SDS011;36749;37.428;-121.972;2024-02-15T08:08:53;8.60;;;3.53;;
50781;SDS011;36749;37.428;-121.972;2024-02-15T08:11:20;9.23;;;3.72;;
50781;SDS011;36749;37.428;-121.972;2024-02-15T08:13:46;10.75;;;3.80;;
50781;SDS011;36749;37.428;-121.972;2024-02-15T08:16:16;11.70;;;4.57;;
50781;SDS011;36749;37.428;-121.972;2024-02-15T08:18:44;7.85;;;4.00;;
50781;SDS011;36749;37.428;-121.972;2024-02-15T08:21:13;7.30;;;3.95;;
50781;SDS011;36749;37.428;-121.972;2024-02-15T08:23:40;10.90;;;5.35;;
50781;SDS011;36749;37.428;-121.972;2024-02-15T08:26:07;9.38;;;4.43;;
50781;SDS011;36749;37.428;-121.972;2024-02-15T08:28:36;8.88;;;4.05;;
50781;SDS011;36749;37.428;-121.972;2024-02-15T08:31:02;7.65;;;4.53;;
50781;SDS011;36749;37.428;-121.972;2024-02-15T08:33:29;8.35;;;4.47;;
50781;SDS011;36749;37.428;-121.972;2024-02-15T08:35:55;9.45;;;4.13;;
50781;SDS011;36749;37.428;-121.972;2024-02-15T08:38:22;12.38;;;5.82;;
50781;SDS011;36749;37.428;-121.972;2024-02-15T08:40:48;10.43;;;5.50;;
50781;SDS011;36749;37.428;-121.972;2024-02-15T08:43:15;8.57;;;4.70;;
50781;SDS011;36749;37.428;-121.972;2024-02-15T08:45:42;10.63;;;4.97;;
50781;SDS011;36749;37.428;-121.972;2024-02-15T08:48:08;7.80;;;4.43;;
50781;SDS011;36749;37.428;-121.972;2024-02-15T08:50:35;9.20;;;5.25;;
50781;SDS011;36749;37.428;-121.972;2024-02-15T08:53:01;9.32;;;5.35;;
50781;SDS011;36749;37.428;-121.972;2024-02-15T08:55:31;12.40;;;6.35;;
50781;SDS011;36749;37.428;-121.972;2024-02-15T08:57:57;11.82;;;6.20;;
50781;SDS011;36749;37.428;-121.972;2024-02-15T09:00:25;14.25;;;7.00;;
50781;SDS011;36749;37.428;-121.972;2024-02-15T09:02:52;12.60;;;7.57;;
50781;SDS011;36749;37.428;-121.972;2024-02-15T09:05:18;14.13;;;8.40;;
50781;SDS011;36749;37.428;-121.972;2024-02-15T09:07:47;13.20;;;7.63;;
50781;SDS011;36749;37.428;-121.972;2024-02-15T09:10:15;12.57;;;8.05;;
50781;SDS011;36749;37.428;-121.972;2024-02-15T09:12:44;13.35;;;7.68;;
50781;SDS011;36749;37.428;-121.972;2024-02-15T09:15:14;14.05;;;8.32;;
50781;SDS011;36749;37.428;-121.972;2024-02-15T09:17:41;16.10;;;9.50;;
50781;SDS011;36749;37.428;-121.972;2024-02-15T09:20:12;14.40;;;8.90;;
50781;SDS011;36749;37.428;-121.972;2024-02-15T09:22:48;12.55;;;7.80;;
50781;SDS011;36749;37.428;-121.972;2024-02-15T09:25:15;15.23;;;7.88;;
50781;SDS011;36749;37.428;-121.972;2024-02-15T09:27:42;14.20;;;9.10;;
50781;SDS011;36749;37.428;-121.972;2024-02-15T09:30:09;14.43;;;8.60;;
50781;SDS011;36749;37.428;-121.972;2024-02-15T09:32:37;16.08;;;9.38;;
50781;SDS011;36749;37.428;-121.972;2024-02-15T09:35:04;13.15;;;8.35;;
50781;SDS011;36749;37.428;-121.972;2024-02-15T09:37:34;16.88;;;9.40;;
50781;SDS011;36749;37.428;-121.972;2024-02-15T09:40:10;17.15;;;9.07;;
50781;SDS011;36749;37.428;-121.972;2024-02-15T09:42:37;15.73;;;7.90;;
50781;SDS011;36749;37.428;-121.972;2024-02-15T09:45:07;16.48;;;8.10;;
50781;SDS011;36749;37.428;-121.972;2024-02-15T09:47:38;15.30;;;7.82;;
50781;SDS011;36749;37.428;-121.972;2024-02-15T09:50:08;13.27;;;7.63;;
50781;SDS011;36749;37.428;-121.972;2024-02-15T09:52:39;13.50;;;8.30;;
50781;SDS011;36749;37.428;-121.972;2024-02-15T09:55:07;16.10;;;8.18;;
50781;SDS011;36749;37.428;-121.972;2024-02-15T09:57:41;14.20;;;7.45;;
50781;SDS011;36749;37.428;-121.972;2024-02-15T10:00:09;13.80;;;7.70;;
50781;SDS011;36749;37.428;-121.972;2024-02-15T10:02:42;16.08;;;8.32;;
50781;SDS011;36749;37.428;-121.972;2024-02-15T10:05:10;15.73;;;7.40;;
50781;SDS011;36749;37.428;-121.972;2024-02-15T10:07:38;16.35;;;6.20;;
50781;SDS011;36749;37.428;-121.972;2024-02-15T10:10:23;16.17;;;5.85;;
50781;SDS011;36749;37.428;-121.972;2024-02-15T10:12:51;14.40;;;4.60;;
50781;SDS011;36749;37.428;-121.972;2024-02-15T10:15:28;15.20;;;4.65;;
50781;SDS011;36749;37.428;-121.972;2024-02-15T10:17:58;15.63;;;4.65;;
50781;SDS011;36749;37.428;-121.972;2024-02-15T10:20:24;15.15;;;4.80;;
50781;SDS011;36749;37.428;-121.972;2024-02-15T10:25:26;10.57;;;5.38;;
50781;SDS011;36749;37.428;-121.972;2024-02-15T10:28:02;14.07;;;4.85;;
50781;SDS011;36749;37.428;-121.972;2024-02-15T10:30:38;12.88;;;5.63;;
50781;SDS011;36749;37.428;-121.972;2024-02-15T10:33:08;17.38;;;4.93;;
50781;SDS011;36749;37.428;-121.972;2024-02-15T10:35:35;11.63;;;5.47;;
50781;SDS011;36749;37.428;-121.972;2024-02-15T10:38:11;13.43;;;6.72;;
50781;SDS011;36749;37.428;-121.972;2024-02-15T10:40:38;14.43;;;6.70;;
50781;SDS011;36749;37.428;-121.972;2024-02-15T10:43:09;15.55;;;6.25;;
50781;SDS011;36749;37.428;-121.972;2024-02-15T10:45:39;12.02;;;6.25;;
50781;SDS011;36749;37.428;-121.972;2024-02-15T10:48:07;13.60;;;5.57;;
50781;SDS011;36749;37.428;-121.972;2024-02-15T10:50:34;13.88;;;5.57;;
50781;SDS011;36749;37.428;-121.972;2024-02-15T10:53:04;15.32;;;5.45;;
50781;SDS011;36749;37.428;-121.972;2024-02-15T10:56:04;16.25;;;6.25;;
50781;SDS011;36749;37.428;-121.972;2024-02-15T10:58:39;21.40;;;5.72;;
50781;SDS011;36749;37.428;-121.972;2024-02-15T11:03:36;10.43;;;4.30;;
50781;SDS011;36749;37.428;-121.972;2024-02-15T11:06:07;13.93;;;4.30;;
50781;SDS011;36749;37.428;-121.972;2024-02-15T11:08:35;11.00;;;4.30;;
50781;SDS011;36749;37.428;-121.972;2024-02-15T11:11:01;10.55;;;4.00;;
50781;SDS011;36749;37.428;-121.972;2024-02-15T11:13:30;17.85;;;4.80;;
50781;SDS011;36749;37.428;-121.972;2024-02-15T11:15:56;17.83;;;5.50;;
50781;SDS011;36749;37.428;-121.972;2024-02-15T11:21:16;14.63;;;4.22;;
50781;SDS011;36749;37.428;-121.972;2024-02-15T11:23:43;11.85;;;4.35;;
50781;SDS011;36749;37.428;-121.972;2024-02-15T11:26:42;12.30;;;4.88;;
50781;SDS011;36749;37.428;-121.972;2024-02-15T11:29:47;13.20;;;5.25;;
50781;SDS011;36749;37.428;-121.972;2024-02-15T11:32:44;7.15;;;4.18;;
50781;SDS011;36749;37.428;-121.972;2024-02-15T11:35:19;9.50;;;3.92;;
50781;SDS011;36749;37.428;-121.972;2024-02-15T11:38:06;17.33;;;3.78;;
50781;SDS011;36749;37.428;-121.972;2024-02-15T11:43:07;15.38;;;4.47;;
50781;SDS011;36749;37.428;-121.972;2024-02-15T11:45:35;12.45;;;3.92;;
50781;SDS011;36749;37.428;-121.972;2024-02-15T11:48:10;15.05;;;4.90;;
50781;SDS011;36749;37.428;-121.972;2024-02-15T11:50:37;14.38;;;4.55;;
50781;SDS011;36749;37.428;-121.972;2024-02-15T11:53:07;18.27;;;5.00;;
50781;SDS011;36749;37.428;-121.972;2024-02-15T11:55:34;13.52;;;4.70;;
50781;SDS011;36749;37.428;-121.972;2024-02-15T11:58:04;11.27;;;4.47;;
50781;SDS011;36749;37.428;-121.972;2024-02-15T12:00:34;12.60;;;4.53;;
50781;SDS011;36749;37.428;-121.972;2024-02-15T12:03:19;12.95;;;4.30;;
50781;SDS011;36749;37.428;-121.972;2024-02-15T12:06:04;12.15;;;4.00;;
50781;SDS011;36749;37.428;-121.972;2024-02-15T12:08:50;12.18;;;4.75;;
50781;SDS011;36749;37.428;-121.972;2024-02-15T12:11:35;14.10;;;4.38;;
50781;SDS011;36749;37.428;-121.972;2024-02-15T12:14:43;14.02;;;4.63;;
50781;SDS011;36749;37.428;-121.972;2024-02-15T12:17:27;14.38;;;5.00;;
50781;SDS011;36749;37.428;-121.972;2024-02-15T12:22:45;12.73;;;6.07;;
50781;SDS011;36749;37.428;-121.972;2024-02-15T12:25:16;15.98;;;6.50;;
50781;SDS011;36749;37.428;-121.972;2024-02-15T12:27:46;14.30;;;7.22;;
50781;SDS011;36749;37.428;-121.972;2024-02-15T12:30:21;13.35;;;6.75;;
50781;SDS011;36749;37.428;-121.972;2024-02-15T12:32:48;17.40;;;8.90;;
50781;SDS011;36749;37.428;-121.972;2024-02-15T12:35:19;14.55;;;7.20;;
50781;SDS011;36749;37.428;-121.972;2024-02-15T12:40:33;18.15;;;9.00;;
50781;SDS011;36749;37.428;-121.972;2024-02-15T12:43:02;16.70;;;8.82;;
50781;SDS011;36749;37.428;-121.972;2024-02-15T12:45:37;20.40;;;9.00;;
50781;SDS011;36749;37.428;-121.972;2024-02-15T12:48:05;17.98;;;8.55;;
50781;SDS011;36749;37.428;-121.972;2024-02-15T12:50:31;19.45;;;8.60;;
50781;SDS011;36749;37.428;-121.972;2024-02-15T12:52:58;17.92;;;9.25;;
50781;SDS011;36749;37.428;-121.972;2024-02-15T12:55:31;18.73;;;9.45;;
50781;SDS011;36749;37.428;-121.972;2024-02-15T12:58:00;17.10;;;9.57;;
50781;SDS011;36749;37.428;-121.972;2024-02-15T13:00:29;16.58;;;8.90;;
50781;SDS011;36749;37.428;-121.972;2024-02-15T13:02:58;18.40;;;7.63;;
50781;SDS011;36749;37.428;-121.972;2024-02-15T13:05:28;15.88;;;7.68;;
50781;SDS011;36749;37.428;-121.972;2024-02-15T13:07:59;17.73;;;7.40;;
50781;SDS011;36749;37.428;-121.972;2024-02-15T13:10:27;14.57;;;7.47;;
50781;SDS011;36749;37.428;-121.972;2024-02-15T13:12:54;15.60;;;6.95;;
50781;SDS011;36749;37.428;-121.972;2024-02-15T13:15:21;14.75;;;8.13;;
50781;SDS011;36749;37.428;-121.972;2024-02-15T13:17:52;15.63;;;6.95;;
50781;SDS011;36749;37.428;-121.972;2024-02-15T13:20:20;15.45;;;6.60;;
50781;SDS011;36749;37.428;-121.972;2024-02-15T13:22:57;13.73;;;6.50;;
50781;SDS011;36749;37.428;-121.972;2024-02-15T13:25:27;13.07;;;5.97;;
50781;SDS011;36749;37.428;-121.972;2024-02-15T13:27:56;15.23;;;6.53;;
50781;SDS011;36749;37.428;-121.972;2024-02-15T13:30:22;15.88;;;6.30;;
50781;SDS011;36749;37.428;-121.972;2024-02-15T13:32:52;11.13;;;5.95;;
50781;SDS011;36749;37.428;-121.972;2024-02-15T13:35:22;13.98;;;5.72;;
50781;SDS011;36749;37.428;-121.972;2024-02-15T13:37:51;14.75;;;5.57;;
50781;SDS011;36749;37.428;-121.972;2024-02-15T13:40:23;11.18;;;5.72;;
50781;SDS011;36749;37.428;-121.972;2024-02-15T13:42:51;17.40;;;6.38;;
50781;SDS011;36749;37.428;-121.972;2024-02-15T13:45:28;13.55;;;7.00;;
50781;SDS011;36749;37.428;-121.972;2024-02-15T13:47:56;12.48;;;5.82;;
50781;SDS011;36749;37.428;-121.972;2024-02-15T13:50:22;12.38;;;5.63;;
50781;SDS011;36749;37.428;-121.972;2024-02-15T13:52:49;14.15;;;5.55;;
50781;SDS011;36749;37.428;-121.972;2024-02-15T13:55:16;14.73;;;6.20;;
50781;SDS011;36749;37.428;-121.972;2024-02-15T13:57:44;11.43;;;5.15;;
50781;SDS011;36749;37.428;-121.972;2024-02-15T14:00:14;13.30;;;5.93;;
50781;SDS011;36749;37.428;-121.972;2024-02-15T14:02:54;14.60;;;6.20;;
50781;SDS011;36749;37.428;-121.972;2024-02-15T14:05:24;14.88;;;6.95;;
50781;SDS011;36749;37.428;-121.972;2024-02-15T14:07:54;13.15;;;5.85;;
50781;SDS011;36749;37.428;-121.972;2024-02-15T14:10:23;14.38;;;5.75;;
50781;SDS011;36749;37.428;-121.972;2024-02-15T14:12:53;13.00;;;5.93;;
50781;SDS011;36749;37.428;-121.972;2024-02-15T14:15:31;14.48;;;6.63;;
50781;SDS011;36749;37.428;-121.972;2024-02-15T14:18:07;13.98;;;5.93;;
50781;SDS011;36749;37.428;-121.972;2024-02-15T14:20:43;16.58;;;6.78;;
50781;SDS011;36749;37.428;-121.972;2024-02-15T14:23:12;19.08;;;5.90;;
50781;SDS011;36749;37.428;-121.972;2024-02-15T14:25:42;12.88;;;5.72;;
50781;SDS011;36749;37.428;-121.972;2024-02-15T14:28:09;12.98;;;5.38;;
50781;SDS011;36749;37.428;-121.972;2024-02-15T14:30:36;14.15;;;6.82;;
50781;SDS011;36749;37.428;-121.972;2024-02-15T14:33:21;19.75;;;6.60;;
50781;SDS011;36749;37.428;-121.972;2024-02-15T14:35:48;17.75;;;7.32;;